createdAt,value
2023-04-25T00:00:55.629Z,72.44
2023-04-25T00:10:55.742Z,72.45
2023-04-25T00:20:55.777Z,72.40
2023-04-25T00:30:55.763Z,72.44
2023-04-25T00:40:56.358Z,72.41
2023-04-25T00:50:56.716Z,72.41
2023-04-25T01:00:57.243Z,72.36
2023-04-25T01:10:58.030Z,72.33
2023-04-25T01:20:57.862Z,72.27
2023-04-25T01:30:58.038Z,72.30
2023-04-25T01:40:57.839Z,72.29
2023-04-25T01:50:57.875Z,72.36
2023-04-25T02:00:59.040Z,72.42
2023-04-25T02:11:00.782Z,72.45
2023-04-25T02:21:01.649Z,72.53
2023-04-25T02:31:01.884Z,72.56
2023-04-25T02:41:01.981Z,72.60
2023-04-25T02:51:03.141Z,72.88
2023-04-25T03:01:03.157Z,73.09
2023-04-25T03:11:07.196Z,73.03
2023-04-25T03:21:07.026Z,73.13
2023-04-25T03:31:06.989Z,73.18
2023-04-25T03:41:11.697Z,73.23
2023-04-25T03:51:13.874Z,73.33
2023-04-25T04:01:14.225Z,73.36
2023-04-25T04:11:14.268Z,73.49
2023-04-25T04:21:15.432Z,73.65
2023-04-25T04:31:17.805Z,73.72
2023-04-25T04:41:25.816Z,73.77
2023-04-25T04:51:30.746Z,73.83
2023-04-25T05:01:45.086Z,73.71
2023-04-25T05:11:49.784Z,73.69
2023-04-25T05:21:51.904Z,72.68
2023-04-25T05:31:53.195Z,71.62
2023-04-25T05:41:54.960Z,71.50
2023-04-25T05:52:14.007Z,71.49
2023-04-25T06:02:14.560Z,70.05
2023-04-25T06:12:15.215Z,69.06
2023-04-25T06:22:34.648Z,67.95
2023-04-25T06:32:35.906Z,66.15
2023-04-25T06:42:38.083Z,63.81
2023-04-25T06:52:38.569Z,62.46
2023-04-25T07:02:39.662Z,61.84
2023-04-25T07:12:40.443Z,53.42
2023-04-25T07:22:40.596Z,50.71
2023-04-25T07:32:41.481Z,43.90
2023-04-25T07:42:41.515Z,37.22
2023-04-25T07:52:43.188Z,32.30
2023-04-25T08:02:45.301Z,40.92
2023-04-25T08:12:46.698Z,41.44
2023-04-25T08:22:59.904Z,41.54
2023-04-25T08:33:02.472Z,40.96
2023-04-25T08:43:03.981Z,42.54
2023-04-25T08:53:04.569Z,38.47
2023-04-25T09:03:06.455Z,37.71
2023-04-25T09:13:08.506Z,39.08
2023-04-25T09:23:10.004Z,34.46
2023-04-25T09:33:11.020Z,26.21
2023-04-25T09:43:12.208Z,31.41
2023-04-25T09:53:14.349Z,32.84
2023-04-25T10:03:19.266Z,33.59
2023-04-25T10:13:19.506Z,27.07
2023-04-25T10:23:20.132Z,32.42
2023-04-25T10:33:20.634Z,33.58
2023-04-25T10:43:21.144Z,33.63
2023-04-25T10:53:28.697Z,32.81
2023-04-25T11:03:30.058Z,33.28
2023-04-25T11:13:30.781Z,33.28
2023-04-25T11:23:30.948Z,34.59
2023-04-25T11:33:31.613Z,33.61
2023-04-25T11:43:31.700Z,33.57
2023-04-25T11:53:31.654Z,34.05
2023-04-25T12:03:33.589Z,32.68
2023-04-25T12:13:33.715Z,33.09
2023-04-25T12:23:33.744Z,35.51
2023-04-25T12:33:33.702Z,38.63
2023-04-25T12:43:33.734Z,41.65
2023-04-25T12:53:35.159Z,44.43
2023-04-25T13:03:35.960Z,46.08
2023-04-25T13:13:37.113Z,45.90
2023-04-25T13:23:37.747Z,46.81
2023-04-25T13:33:37.795Z,47.08
2023-04-25T13:43:37.822Z,45.74
2023-04-25T13:53:39.256Z,44.90
2023-04-25T14:03:40.684Z,43.62
2023-04-25T14:13:40.879Z,42.57
2023-04-25T14:23:52.082Z,42.34
2023-04-25T14:33:53.148Z,41.67
2023-04-25T14:43:54.024Z,43.19
2023-04-25T14:53:54.012Z,45.51
2023-04-25T15:03:54.246Z,45.64
2023-04-25T15:13:55.367Z,46.05
2023-04-25T15:23:56.350Z,47.10
2023-04-25T15:33:56.884Z,47.51
2023-04-25T15:43:57.016Z,47.36
2023-04-25T15:53:57.035Z,47.00
2023-04-25T16:03:58.387Z,46.10
2023-04-25T16:13:59.018Z,46.47
2023-04-25T16:23:59.175Z,46.97
2023-04-25T16:33:58.938Z,47.34
2023-04-25T16:43:59.336Z,47.82
2023-04-25T16:53:58.979Z,48.44
2023-04-25T17:03:59.420Z,48.87
2023-04-25T17:14:00.574Z,49.23
2023-04-25T17:24:01.271Z,49.37
2023-04-25T17:34:01.193Z,49.58
2023-04-25T17:44:04.978Z,49.59
2023-04-25T17:54:16.361Z,49.87
2023-04-25T18:04:17.038Z,49.93
2023-04-25T18:14:17.220Z,50.21
2023-04-25T18:24:17.764Z,50.68
2023-04-25T18:34:20.054Z,51.17
2023-04-25T18:44:20.347Z,51.55
2023-04-25T18:54:20.230Z,51.92
2023-04-25T19:04:20.439Z,52.33
2023-04-25T19:14:22.008Z,52.93
2023-04-25T19:24:22.295Z,53.48
2023-04-25T19:34:22.963Z,54.18
2023-04-25T19:44:23.308Z,54.71
2023-04-25T19:54:23.513Z,55.17
2023-04-25T20:04:23.402Z,55.60
2023-04-25T20:14:23.511Z,56.07
2023-04-25T20:24:23.304Z,56.57
2023-04-25T20:34:24.796Z,56.98
2023-04-25T20:44:25.349Z,57.39
2023-04-25T20:54:26.633Z,57.86
2023-04-25T21:04:26.433Z,58.31
2023-04-25T21:14:26.408Z,58.90
2023-04-25T21:24:26.978Z,59.55
2023-04-25T21:34:27.342Z,60.28
2023-04-25T21:44:29.611Z,60.88
2023-04-25T21:54:29.398Z,61.37
2023-04-25T22:04:29.558Z,61.86
2023-04-25T22:14:31.592Z,62.46
2023-04-25T22:24:32.262Z,62.97
2023-04-25T22:34:32.464Z,63.48
2023-04-25T22:44:32.484Z,64.01
2023-04-25T22:54:32.480Z,64.47
2023-04-25T23:04:32.593Z,64.84
2023-04-25T23:14:33.147Z,65.32
2023-04-25T23:24:33.620Z,65.71
2023-04-25T23:34:33.757Z,66.17
2023-04-25T23:44:33.632Z,66.61
2023-04-25T23:54:33.528Z,66.95
